sensor_id;sensor_type;location;lat;lon;timestamp;P1;durP1;ratioP1;P2;durP2;ratioP2
59504;SDS011;45321;53.200;5.814;2023-05-07T00:00:38;31.48;;;26.02;;
59504;SDS011;45321;53.200;5.814;2023-05-07T00:03:05;39.00;;;30.05;;
59504;SDS011;45321;53.200;5.814;2023-05-07T00:05:31;26.90;;;23.52;;
59504;SDS011;45321;53.200;5.814;2023-05-07T00:07:57;33.58;;;27.25;;
59504;SDS011;45321;53.200;5.814;2023-05-07T00:10:23;31.67;;;27.33;;
59504;SDS011;45321;53.200;5.814;2023-05-07T00:12:50;26.42;;;23.20;;
59504;SDS011;45321;53.200;5.814;2023-05-07T00:15:16;26.33;;;23.25;;
59504;SDS011;45321;53.200;5.814;2023-05-07T00:17:41;23.80;;;21.20;;
59504;SDS011;45321;53.200;5.814;2023-05-07T00:20:07;51.90;;;22.30;;
59504;SDS011;45321;53.200;5.814;2023-05-07T00:22:33;23.08;;;20.65;;
59504;SDS011;45321;53.200;5.814;2023-05-07T00:24:59;23.83;;;19.48;;
59504;SDS011;45321;53.200;5.814;2023-05-07T00:27:25;22.33;;;19.92;;
59504;SDS011;45321;53.200;5.814;2023-05-07T00:29:51;23.00;;;19.55;;
59504;SDS011;45321;53.200;5.814;2023-05-07T00:32:16;23.98;;;19.98;;
59504;SDS011;45321;53.200;5.814;2023-05-07T00:34:42;21.80;;;19.60;;
59504;SDS011;45321;53.200;5.814;2023-05-07T00:37:08;22.60;;;20.33;;
59504;SDS011;45321;53.200;5.814;2023-05-07T00:39:34;22.38;;;19.85;;
59504;SDS011;45321;53.200;5.814;2023-05-07T00:42:00;22.33;;;19.75;;
59504;SDS011;45321;53.200;5.814;2023-05-07T00:44:27;20.73;;;18.63;;
59504;SDS011;45321;53.200;5.814;2023-05-07T00:46:54;22.25;;;19.95;;
59504;SDS011;45321;53.200;5.814;2023-05-07T00:49:22;22.52;;;19.23;;
59504;SDS011;45321;53.200;5.814;2023-05-07T00:51:56;25.08;;;20.52;;
59504;SDS011;45321;53.200;5.814;2023-05-07T00:54:22;22.92;;;19.67;;
59504;SDS011;45321;53.200;5.814;2023-05-07T00:56:48;23.13;;;19.05;;
59504;SDS011;45321;53.200;5.814;2023-05-07T00:59:14;22.88;;;20.40;;
59504;SDS011;45321;53.200;5.814;2023-05-07T01:01:40;22.08;;;18.98;;
59504;SDS011;45321;53.200;5.814;2023-05-07T01:04:06;23.48;;;20.80;;
59504;SDS011;45321;53.200;5.814;2023-05-07T01:06:31;22.80;;;19.77;;
59504;SDS011;45321;53.200;5.814;2023-05-07T01:08:58;23.33;;;20.48;;
59504;SDS011;45321;53.200;5.814;2023-05-07T01:11:24;23.52;;;19.73;;
59504;SDS011;45321;53.200;5.814;2023-05-07T01:13:51;23.75;;;20.65;;
59504;SDS011;45321;53.200;5.814;2023-05-07T01:16:17;23.90;;;19.83;;
59504;SDS011;45321;53.200;5.814;2023-05-07T01:18:43;23.05;;;20.55;;
59504;SDS011;45321;53.200;5.814;2023-05-07T01:21:10;22.85;;;20.40;;
59504;SDS011;45321;53.200;5.814;2023-05-07T01:23:36;22.35;;;20.02;;
59504;SDS011;45321;53.200;5.814;2023-05-07T01:26:03;20.40;;;18.50;;
59504;SDS011;45321;53.200;5.814;2023-05-07T01:28:29;22.65;;;20.25;;
59504;SDS011;45321;53.200;5.814;2023-05-07T01:30:56;23.25;;;20.75;;
59504;SDS011;45321;53.200;5.814;2023-05-07T01:33:29;24.45;;;21.35;;
59504;SDS011;45321;53.200;5.814;2023-05-07T01:35:58;23.75;;;21.25;;
59504;SDS011;45321;53.200;5.814;2023-05-07T01:38:27;23.40;;;21.00;;
59504;SDS011;45321;53.200;5.814;2023-05-07T01:40:53;24.02;;;20.33;;
59504;SDS011;45321;53.200;5.814;2023-05-07T01:43:20;23.75;;;21.42;;
59504;SDS011;45321;53.200;5.814;2023-05-07T01:45:46;23.10;;;20.55;;
59504;SDS011;45321;53.200;5.814;2023-05-07T01:48:14;23.33;;;20.83;;
59504;SDS011;45321;53.200;5.814;2023-05-07T01:50:40;24.42;;;21.83;;
59504;SDS011;45321;53.200;5.814;2023-05-07T01:53:07;24.63;;;21.95;;
59504;SDS011;45321;53.200;5.814;2023-05-07T01:55:33;24.65;;;20.67;;
59504;SDS011;45321;53.200;5.814;2023-05-07T01:57:59;24.85;;;22.25;;
59504;SDS011;45321;53.200;5.814;2023-05-07T02:00:25;25.58;;;22.80;;
59504;SDS011;45321;53.200;5.814;2023-05-07T02:02:51;25.77;;;22.73;;
59504;SDS011;45321;53.200;5.814;2023-05-07T02:05:17;27.60;;;23.48;;
59504;SDS011;45321;53.200;5.814;2023-05-07T02:07:43;24.85;;;22.25;;
59504;SDS011;45321;53.200;5.814;2023-05-07T02:10:09;25.85;;;23.13;;
59504;SDS011;45321;53.200;5.814;2023-05-07T02:12:35;26.52;;;23.65;;
59504;SDS011;45321;53.200;5.814;2023-05-07T02:15:00;25.77;;;23.05;;
59504;SDS011;45321;53.200;5.814;2023-05-07T02:17:26;28.33;;;23.33;;
59504;SDS011;45321;53.200;5.814;2023-05-07T02:19:52;27.08;;;24.25;;
59504;SDS011;45321;53.200;5.814;2023-05-07T02:22:18;27.58;;;24.73;;
59504;SDS011;45321;53.200;5.814;2023-05-07T02:24:44;26.63;;;23.83;;
59504;SDS011;45321;53.200;5.814;2023-05-07T02:27:09;29.38;;;24.33;;
59504;SDS011;45321;53.200;5.814;2023-05-07T02:29:35;26.98;;;24.13;;
59504;SDS011;45321;53.200;5.814;2023-05-07T02:32:01;27.77;;;24.75;;
59504;SDS011;45321;53.200;5.814;2023-05-07T02:34:26;30.60;;;24.20;;
59504;SDS011;45321;53.200;5.814;2023-05-07T02:36:52;30.10;;;24.92;;
59504;SDS011;45321;53.200;5.814;2023-05-07T02:39:18;26.98;;;24.08;;
59504;SDS011;45321;53.200;5.814;2023-05-07T02:41:43;27.55;;;24.73;;
59504;SDS011;45321;53.200;5.814;2023-05-07T02:44:09;28.77;;;25.02;;
59504;SDS011;45321;53.200;5.814;2023-05-07T02:46:35;29.38;;;25.40;;
59504;SDS011;45321;53.200;5.814;2023-05-07T02:49:00;29.65;;;25.55;;
59504;SDS011;45321;53.200;5.814;2023-05-07T02:51:26;30.13;;;24.15;;
59504;SDS011;45321;53.200;5.814;2023-05-07T02:53:52;28.88;;;25.35;;
59504;SDS011;45321;53.200;5.814;2023-05-07T02:56:18;29.30;;;25.95;;
59504;SDS011;45321;53.200;5.814;2023-05-07T02:58:43;29.23;;;25.45;;
59504;SDS011;45321;53.200;5.814;2023-05-07T03:01:09;27.85;;;24.88;;
59504;SDS011;45321;53.200;5.814;2023-05-07T03:03:35;27.88;;;24.50;;
59504;SDS011;45321;53.200;5.814;2023-05-07T03:06:01;29.00;;;24.88;;
59504;SDS011;45321;53.200;5.814;2023-05-07T03:08:27;27.77;;;24.92;;
59504;SDS011;45321;53.200;5.814;2023-05-07T03:10:52;28.98;;;24.63;;
59504;SDS011;45321;53.200;5.814;2023-05-07T03:13:18;28.38;;;23.90;;
59504;SDS011;45321;53.200;5.814;2023-05-07T03:15:44;27.80;;;24.45;;
59504;SDS011;45321;53.200;5.814;2023-05-07T03:18:10;29.45;;;26.23;;
59504;SDS011;45321;53.200;5.814;2023-05-07T03:20:36;27.67;;;24.83;;
59504;SDS011;45321;53.200;5.814;2023-05-07T03:23:02;28.33;;;25.33;;
59504;SDS011;45321;53.200;5.814;2023-05-07T03:25:28;28.80;;;25.73;;
59504;SDS011;45321;53.200;5.814;2023-05-07T03:27:55;28.90;;;25.80;;
59504;SDS011;45321;53.200;5.814;2023-05-07T03:30:21;28.48;;;25.13;;
59504;SDS011;45321;53.200;5.814;2023-05-07T03:32:47;32.15;;;26.40;;
59504;SDS011;45321;53.200;5.814;2023-05-07T03:35:13;32.20;;;26.05;;
59504;SDS011;45321;53.200;5.814;2023-05-07T03:37:39;30.70;;;27.38;;
59504;SDS011;45321;53.200;5.814;2023-05-07T03:40:05;29.85;;;26.65;;
59504;SDS011;45321;53.200;5.814;2023-05-07T03:42:32;32.05;;;26.90;;
59504;SDS011;45321;53.200;5.814;2023-05-07T03:44:58;32.20;;;26.88;;
59504;SDS011;45321;53.200;5.814;2023-05-07T03:47:24;30.50;;;27.25;;
59504;SDS011;45321;53.200;5.814;2023-05-07T03:49:50;31.52;;;27.48;;
59504;SDS011;45321;53.200;5.814;2023-05-07T03:52:17;30.60;;;27.20;;
59504;SDS011;45321;53.200;5.814;2023-05-07T03:54:48;31.58;;;28.20;;
59504;SDS011;45321;53.200;5.814;2023-05-07T03:57:13;29.38;;;26.13;;
59504;SDS011;45321;53.200;5.814;2023-05-07T03:59:39;34.75;;;29.20;;
59504;SDS011;45321;53.200;5.814;2023-05-07T04:02:05;29.95;;;26.75;;
59504;SDS011;45321;53.200;5.814;2023-05-07T04:04:31;33.75;;;28.17;;
59504;SDS011;45321;53.200;5.814;2023-05-07T04:06:58;32.33;;;27.90;;
59504;SDS011;45321;53.200;5.814;2023-05-07T04:09:24;32.38;;;28.80;;
59504;SDS011;45321;53.200;5.814;2023-05-07T04:11:50;34.17;;;30.42;;
59504;SDS011;45321;53.200;5.814;2023-05-07T04:14:16;33.67;;;29.48;;
59504;SDS011;45321;53.200;5.814;2023-05-07T04:16:42;31.67;;;27.55;;
59504;SDS011;45321;53.200;5.814;2023-05-07T04:19:07;33.92;;;30.20;;
59504;SDS011;45321;53.200;5.814;2023-05-07T04:21:33;32.70;;;29.10;;
59504;SDS011;45321;53.200;5.814;2023-05-07T04:23:59;37.15;;;30.38;;
59504;SDS011;45321;53.200;5.814;2023-05-07T04:26:25;34.85;;;29.17;;
59504;SDS011;45321;53.200;5.814;2023-05-07T04:28:51;33.65;;;29.50;;
59504;SDS011;45321;53.200;5.814;2023-05-07T04:31:16;35.95;;;30.02;;
59504;SDS011;45321;53.200;5.814;2023-05-07T04:33:42;36.78;;;29.95;;
59504;SDS011;45321;53.200;5.814;2023-05-07T04:36:08;34.95;;;30.30;;
59504;SDS011;45321;53.200;5.814;2023-05-07T04:38:33;33.28;;;29.00;;
59504;SDS011;45321;53.200;5.814;2023-05-07T04:41:03;34.35;;;30.40;;
59504;SDS011;45321;53.200;5.814;2023-05-07T04:43:30;36.15;;;30.48;;
59504;SDS011;45321;53.200;5.814;2023-05-07T04:45:56;37.42;;;31.88;;
59504;SDS011;45321;53.200;5.814;2023-05-07T04:48:21;38.92;;;31.67;;
59504;SDS011;45321;53.200;5.814;2023-05-07T04:50:48;35.85;;;30.92;;
59504;SDS011;45321;53.200;5.814;2023-05-07T04:53:16;36.92;;;31.88;;
59504;SDS011;45321;53.200;5.814;2023-05-07T04:55:43;44.13;;;31.70;;
59504;SDS011;45321;53.200;5.814;2023-05-07T04:58:08;37.67;;;31.52;;
59504;SDS011;45321;53.200;5.814;2023-05-07T05:00:35;37.13;;;32.40;;
59504;SDS011;45321;53.200;5.814;2023-05-07T05:03:00;37.53;;;31.95;;
59504;SDS011;45321;53.200;5.814;2023-05-07T05:05:26;40.63;;;33.22;;
59504;SDS011;45321;53.200;5.814;2023-05-07T05:07:52;38.65;;;32.00;;
59504;SDS011;45321;53.200;5.814;2023-05-07T05:10:18;38.58;;;33.58;;
59504;SDS011;45321;53.200;5.814;2023-05-07T05:12:43;38.15;;;33.10;;
59504;SDS011;45321;53.200;5.814;2023-05-07T05:15:11;41.20;;;34.00;;
59504;SDS011;45321;53.200;5.814;2023-05-07T05:17:37;41.72;;;33.42;;
59504;SDS011;45321;53.200;5.814;2023-05-07T05:20:03;41.28;;;33.75;;
59504;SDS011;45321;53.200;5.814;2023-05-07T05:22:30;41.70;;;34.25;;
59504;SDS011;45321;53.200;5.814;2023-05-07T05:24:57;42.40;;;34.95;;
59504;SDS011;45321;53.200;5.814;2023-05-07T05:27:22;42.55;;;33.95;;
59504;SDS011;45321;53.200;5.814;2023-05-07T05:29:49;46.30;;;35.53;;
59504;SDS011;45321;53.200;5.814;2023-05-07T05:32:15;41.67;;;33.83;;
59504;SDS011;45321;53.200;5.814;2023-05-07T05:34:40;44.10;;;34.72;;
59504;SDS011;45321;53.200;5.814;2023-05-07T05:37:06;43.22;;;34.38;;
59504;SDS011;45321;53.200;5.814;2023-05-07T05:39:32;43.05;;;33.30;;
59504;SDS011;45321;53.200;5.814;2023-05-07T05:41:58;40.40;;;33.70;;
59504;SDS011;45321;53.200;5.814;2023-05-07T05:44:23;44.55;;;34.40;;
59504;SDS011;45321;53.200;5.814;2023-05-07T05:46:50;40.55;;;33.95;;
59504;SDS011;45321;53.200;5.814;2023-05-07T05:49:16;41.13;;;33.17;;
59504;SDS011;45321;53.200;5.814;2023-05-07T05:51:41;43.78;;;34.75;;
59504;SDS011;45321;53.200;5.814;2023-05-07T05:54:07;43.55;;;34.40;;
59504;SDS011;45321;53.200;5.814;2023-05-07T05:56:33;41.38;;;32.97;;
59504;SDS011;45321;53.200;5.814;2023-05-07T05:58:59;42.38;;;34.25;;
59504;SDS011;45321;53.200;5.814;2023-05-07T06:01:25;42.22;;;34.72;;
59504;SDS011;45321;53.200;5.814;2023-05-07T06:03:50;45.03;;;34.75;;
59504;SDS011;45321;53.200;5.814;2023-05-07T06:06:16;39.38;;;32.50;;
59504;SDS011;45321;53.200;5.814;2023-05-07T06:08:42;43.08;;;33.92;;
59504;SDS011;45321;53.200;5.814;2023-05-07T06:11:08;43.60;;;33.20;;
59504;SDS011;45321;53.200;5.814;2023-05-07T06:13:33;41.15;;;33.13;;
59504;SDS011;45321;53.200;5.814;2023-05-07T06:15:59;39.97;;;32.25;;
59504;SDS011;45321;53.200;5.814;2023-05-07T06:18:25;38.65;;;32.15;;
59504;SDS011;45321;53.200;5.814;2023-05-07T06:20:51;39.10;;;32.63;;
59504;SDS011;45321;53.200;5.814;2023-05-07T06:23:17;40.15;;;33.38;;
59504;SDS011;45321;53.200;5.814;2023-05-07T06:25:49;39.70;;;31.73;;
59504;SDS011;45321;53.200;5.814;2023-05-07T06:28:16;37.22;;;32.03;;
59504;SDS011;45321;53.200;5.814;2023-05-07T06:30:42;39.63;;;31.17;;
59504;SDS011;45321;53.200;5.814;2023-05-07T06:33:07;40.53;;;31.13;;
59504;SDS011;45321;53.200;5.814;2023-05-07T06:35:33;38.13;;;30.92;;
59504;SDS011;45321;53.200;5.814;2023-05-07T06:37:59;39.78;;;31.35;;
59504;SDS011;45321;53.200;5.814;2023-05-07T06:40:25;36.80;;;30.73;;
59504;SDS011;45321;53.200;5.814;2023-05-07T06:42:51;36.63;;;31.50;;
59504;SDS011;45321;53.200;5.814;2023-05-07T06:45:17;35.50;;;29.13;;
59504;SDS011;45321;53.200;5.814;2023-05-07T06:47:43;34.72;;;29.38;;
59504;SDS011;45321;53.200;5.814;2023-05-07T06:50:08;37.35;;;30.25;;
59504;SDS011;45321;53.200;5.814;2023-05-07T06:52:35;36.00;;;29.30;;
59504;SDS011;45321;53.200;5.814;2023-05-07T06:55:00;36.67;;;30.25;;
59504;SDS011;45321;53.200;5.814;2023-05-07T06:57:26;32.95;;;29.17;;
59504;SDS011;45321;53.200;5.814;2023-05-07T06:59:52;36.22;;;28.85;;
59504;SDS011;45321;53.200;5.814;2023-05-07T07:02:18;31.65;;;28.25;;
59504;SDS011;45321;53.200;5.814;2023-05-07T07:04:43;35.92;;;30.90;;
59504;SDS011;45321;53.200;5.814;2023-05-07T07:07:10;35.42;;;31.23;;
59504;SDS011;45321;53.200;5.814;2023-05-07T07:09:35;34.95;;;29.52;;
59504;SDS011;45321;53.200;5.814;2023-05-07T07:12:01;33.95;;;29.60;;
59504;SDS011;45321;53.200;5.814;2023-05-07T07:14:27;33.33;;;27.92;;
59504;SDS011;45321;53.200;5.814;2023-05-07T07:16:53;32.78;;;28.10;;
59504;SDS011;45321;53.200;5.814;2023-05-07T07:19:19;30.27;;;26.45;;
59504;SDS011;45321;53.200;5.814;2023-05-07T07:21:45;29.48;;;26.25;;
59504;SDS011;45321;53.200;5.814;2023-05-07T07:24:11;34.38;;;28.08;;
59504;SDS011;45321;53.200;5.814;2023-05-07T07:26:37;30.23;;;26.95;;
59504;SDS011;45321;53.200;5.814;2023-05-07T07:29:05;29.88;;;26.67;;
59504;SDS011;45321;53.200;5.814;2023-05-07T07:31:31;28.88;;;25.77;;
59504;SDS011;45321;53.200;5.814;2023-05-07T07:33:57;31.13;;;27.50;;
59504;SDS011;45321;53.200;5.814;2023-05-07T07:36:23;32.25;;;26.33;;
59504;SDS011;45321;53.200;5.814;2023-05-07T07:38:48;29.30;;;26.17;;
59504;SDS011;45321;53.200;5.814;2023-05-07T07:41:14;29.30;;;26.15;;
59504;SDS011;45321;53.200;5.814;2023-05-07T07:43:40;27.73;;;24.75;;
59504;SDS011;45321;53.200;5.814;2023-05-07T07:46:06;28.15;;;25.05;;
59504;SDS011;45321;53.200;5.814;2023-05-07T07:48:31;30.33;;;26.23;;
59504;SDS011;45321;53.200;5.814;2023-05-07T07:50:58;31.00;;;25.33;;
59504;SDS011;45321;53.200;5.814;2023-05-07T07:53:24;31.48;;;26.42;;
59504;SDS011;45321;53.200;5.814;2023-05-07T07:55:50;30.80;;;25.25;;
59504;SDS011;45321;53.200;5.814;2023-05-07T07:58:16;29.02;;;25.92;;
59504;SDS011;45321;53.200;5.814;2023-05-07T08:00:41;26.98;;;23.83;;
59504;SDS011;45321;53.200;5.814;2023-05-07T08:03:10;28.30;;;24.65;;
59504;SDS011;45321;53.200;5.814;2023-05-07T08:05:36;27.33;;;23.38;;
59504;SDS011;45321;53.200;5.814;2023-05-07T08:08:03;29.13;;;24.65;;
59504;SDS011;45321;53.200;5.814;2023-05-07T08:10:29;26.65;;;23.80;;
59504;SDS011;45321;53.200;5.814;2023-05-07T08:12:58;27.67;;;24.67;;
59504;SDS011;45321;53.200;5.814;2023-05-07T08:15:24;27.73;;;24.38;;
59504;SDS011;45321;53.200;5.814;2023-05-07T08:17:50;30.42;;;23.90;;
59504;SDS011;45321;53.200;5.814;2023-05-07T08:20:16;27.02;;;24.15;;
59504;SDS011;45321;53.200;5.814;2023-05-07T08:22:41;26.40;;;23.60;;
59504;SDS011;45321;53.200;5.814;2023-05-07T08:25:07;25.80;;;22.98;;
59504;SDS011;45321;53.200;5.814;2023-05-07T08:27:33;28.55;;;24.00;;
59504;SDS011;45321;53.200;5.814;2023-05-07T08:29:59;25.35;;;22.73;;
59504;SDS011;45321;53.200;5.814;2023-05-07T08:32:25;27.35;;;23.48;;
59504;SDS011;45321;53.200;5.814;2023-05-07T08:34:50;25.10;;;22.42;;
59504;SDS011;45321;53.200;5.814;2023-05-07T08:37:16;24.70;;;22.10;;
59504;SDS011;45321;53.200;5.814;2023-05-07T08:39:42;26.10;;;23.33;;
59504;SDS011;45321;53.200;5.814;2023-05-07T08:42:07;28.25;;;22.38;;
59504;SDS011;45321;53.200;5.814;2023-05-07T08:44:36;25.08;;;22.23;;
59504;SDS011;45321;53.200;5.814;2023-05-07T08:47:06;26.27;;;23.48;;
59504;SDS011;45321;53.200;5.814;2023-05-07T08:49:33;25.70;;;22.85;;
59504;SDS011;45321;53.200;5.814;2023-05-07T08:51:59;26.00;;;23.30;;
59504;SDS011;45321;53.200;5.814;2023-05-07T08:54:26;26.50;;;23.42;;
59504;SDS011;45321;53.200;5.814;2023-05-07T08:56:52;25.73;;;22.98;;
59504;SDS011;45321;53.200;5.814;2023-05-07T08:59:18;24.73;;;22.10;;
59504;SDS011;45321;53.200;5.814;2023-05-07T09:01:44;24.52;;;21.95;;
59504;SDS011;45321;53.200;5.814;2023-05-07T09:04:10;25.98;;;22.90;;
59504;SDS011;45321;53.200;5.814;2023-05-07T09:06:35;24.75;;;22.25;;
59504;SDS011;45321;53.200;5.814;2023-05-07T09:09:03;25.45;;;22.75;;
59504;SDS011;45321;53.200;5.814;2023-05-07T09:11:30;24.33;;;21.52;;
59504;SDS011;45321;53.200;5.814;2023-05-07T09:13:56;24.83;;;22.13;;
59504;SDS011;45321;53.200;5.814;2023-05-07T09:16:24;24.58;;;22.08;;
59504;SDS011;45321;53.200;5.814;2023-05-07T09:18:51;23.98;;;21.48;;
59504;SDS011;45321;53.200;5.814;2023-05-07T09:21:18;24.88;;;22.17;;
59504;SDS011;45321;53.200;5.814;2023-05-07T09:23:45;24.52;;;21.92;;
59504;SDS011;45321;53.200;5.814;2023-05-07T09:26:13;25.48;;;22.17;;
59504;SDS011;45321;53.200;5.814;2023-05-07T09:28:40;25.58;;;22.83;;
59504;SDS011;45321;53.200;5.814;2023-05-07T09:31:09;25.48;;;22.88;;
59504;SDS011;45321;53.200;5.814;2023-05-07T09:33:36;27.08;;;22.55;;
59504;SDS011;45321;53.200;5.814;2023-05-07T09:36:06;24.88;;;22.25;;
59504;SDS011;45321;53.200;5.814;2023-05-07T09:38:33;25.48;;;22.88;;
59504;SDS011;45321;53.200;5.814;2023-05-07T09:41:07;28.15;;;23.15;;
59504;SDS011;45321;53.200;5.814;2023-05-07T09:43:35;25.93;;;23.13;;
59504;SDS011;45321;53.200;5.814;2023-05-07T09:46:50;25.75;;;23.13;;
59504;SDS011;45321;53.200;5.814;2023-05-07T09:48:52;28.63;;;23.42;;
59504;SDS011;45321;53.200;5.814;2023-05-07T09:51:25;25.33;;;22.67;;
59504;SDS011;45321;53.200;5.814;2023-05-07T09:53:54;26.92;;;23.27;;
59504;SDS011;45321;53.200;5.814;2023-05-07T09:56:22;24.77;;;22.15;;
59504;SDS011;45321;53.200;5.814;2023-05-07T09:58:49;24.75;;;22.10;;
59504;SDS011;45321;53.200;5.814;2023-05-07T10:01:16;24.20;;;21.63;;
59504;SDS011;45321;53.200;5.814;2023-05-07T10:03:44;25.83;;;21.60;;
59504;SDS011;45321;53.200;5.814;2023-05-07T10:06:11;24.45;;;21.20;;
59504;SDS011;45321;53.200;5.814;2023-05-07T10:08:38;24.95;;;22.23;;
59504;SDS011;45321;53.200;5.814;2023-05-07T10:11:05;24.65;;;21.17;;
59504;SDS011;45321;53.200;5.814;2023-05-07T10:13:32;24.30;;;21.63;;
59504;SDS011;45321;53.200;5.814;2023-05-07T10:16:01;24.10;;;21.60;;
59504;SDS011;45321;53.200;5.814;2023-05-07T10:18:28;24.85;;;22.35;;
59504;SDS011;45321;53.200;5.814;2023-05-07T10:20:59;24.50;;;22.08;;
59504;SDS011;45321;53.200;5.814;2023-05-07T10:23:29;25.13;;;22.52;;
59504;SDS011;45321;53.200;5.814;2023-05-07T10:25:57;23.33;;;20.92;;
59504;SDS011;45321;53.200;5.814;2023-05-07T10:28:25;24.98;;;22.38;;
59504;SDS011;45321;53.200;5.814;2023-05-07T10:33:39;24.83;;;22.23;;
59504;SDS011;45321;53.200;5.814;2023-05-07T10:36:06;24.55;;;21.92;;
59504;SDS011;45321;53.200;5.814;2023-05-07T10:38:33;24.15;;;21.08;;
59504;SDS011;45321;53.200;5.814;2023-05-07T10:40:59;25.85;;;23.20;;
59504;SDS011;45321;53.200;5.814;2023-05-07T10:43:25;25.30;;;22.60;;
59504;SDS011;45321;53.200;5.814;2023-05-07T10:51:25;25.52;;;22.83;;
59504;SDS011;45321;53.200;5.814;2023-05-07T10:56:36;23.73;;;21.33;;
59504;SDS011;45321;53.200;5.814;2023-05-07T10:59:48;24.58;;;21.65;;
59504;SDS011;45321;53.200;5.814;2023-05-07T11:01:59;24.70;;;21.73;;
59504;SDS011;45321;53.200;5.814;2023-05-07T11:04:29;25.90;;;21.95;;
59504;SDS011;45321;53.200;5.814;2023-05-07T11:12:15;25.35;;;22.08;;
59504;SDS011;45321;53.200;5.814;2023-05-07T11:17:08;25.90;;;23.20;;
59504;SDS011;45321;53.200;5.814;2023-05-07T11:19:47;23.48;;;21.00;;
59504;SDS011;45321;53.200;5.814;2023-05-07T11:25:02;25.45;;;22.95;;
59504;SDS011;45321;53.200;5.814;2023-05-07T11:27:28;24.38;;;21.88;;
59504;SDS011;45321;53.200;5.814;2023-05-07T11:29:55;23.30;;;20.80;;
59504;SDS011;45321;53.200;5.814;2023-05-07T11:32:24;22.95;;;20.65;;
59504;SDS011;45321;53.200;5.814;2023-05-07T11:34:55;27.52;;;24.60;;
59504;SDS011;45321;53.200;5.814;2023-05-07T11:37:23;21.60;;;19.48;;
59504;SDS011;45321;53.200;5.814;2023-05-07T11:39:49;21.33;;;19.33;;
59504;SDS011;45321;53.200;5.814;2023-05-07T11:45:07;22.85;;;20.38;;
59504;SDS011;45321;53.200;5.814;2023-05-07T11:47:33;22.35;;;19.25;;
59504;SDS011;45321;53.200;5.814;2023-05-07T11:50:03;21.45;;;19.35;;
59504;SDS011;45321;53.200;5.814;2023-05-07T11:52:30;22.35;;;20.05;;
59504;SDS011;45321;53.200;5.814;2023-05-07T11:54:56;21.25;;;19.25;;
59504;SDS011;45321;53.200;5.814;2023-05-07T11:57:24;22.90;;;20.52;;
59504;SDS011;45321;53.200;5.814;2023-05-07T11:59:56;21.25;;;19.15;;
59504;SDS011;45321;53.200;5.814;2023-05-07T12:02:23;20.08;;;18.08;;
59504;SDS011;45321;53.200;5.814;2023-05-07T12:04:50;19.48;;;17.48;;
59504;SDS011;45321;53.200;5.814;2023-05-07T12:07:16;19.65;;;17.80;;
59504;SDS011;45321;53.200;5.814;2023-05-07T12:09:43;20.42;;;18.50;;
59504;SDS011;45321;53.200;5.814;2023-05-07T12:12:10;19.23;;;17.30;;
59504;SDS011;45321;53.200;5.814;2023-05-07T12:14:39;19.90;;;18.00;;
59504;SDS011;45321;53.200;5.814;2023-05-07T12:17:05;19.95;;;17.88;;
59504;SDS011;45321;53.200;5.814;2023-05-07T12:19:35;20.00;;;17.92;;
59504;SDS011;45321;53.200;5.814;2023-05-07T12:22:02;19.27;;;17.38;;
59504;SDS011;45321;53.200;5.814;2023-05-07T12:24:29;19.30;;;17.30;;
59504;SDS011;45321;53.200;5.814;2023-05-07T12:27:06;17.92;;;16.10;;
59504;SDS011;45321;53.200;5.814;2023-05-07T12:29:34;17.65;;;15.95;;
59504;SDS011;45321;53.200;5.814;2023-05-07T12:31:59;18.95;;;17.02;;
59504;SDS011;45321;53.200;5.814;2023-05-07T12:34:25;18.15;;;16.35;;
59504;SDS011;45321;53.200;5.814;2023-05-07T12:36:51;17.85;;;15.80;;
59504;SDS011;45321;53.200;5.814;2023-05-07T12:39:18;16.95;;;15.35;;
59504;SDS011;45321;53.200;5.814;2023-05-07T12:41:56;15.95;;;14.35;;
59504;SDS011;45321;53.200;5.814;2023-05-07T12:44:30;16.92;;;15.30;;
59504;SDS011;45321;53.200;5.814;2023-05-07T12:46:57;16.57;;;15.03;;
59504;SDS011;45321;53.200;5.814;2023-05-07T12:49:26;15.90;;;14.38;;
59504;SDS011;45321;53.200;5.814;2023-05-07T12:51:52;15.15;;;13.70;;
59504;SDS011;45321;53.200;5.814;2023-05-07T12:54:31;15.90;;;14.15;;
59504;SDS011;45321;53.200;5.814;2023-05-07T12:59:41;14.65;;;13.30;;
59504;SDS011;45321;53.200;5.814;2023-05-07T13:02:07;16.30;;;14.75;;
59504;SDS011;45321;53.200;5.814;2023-05-07T13:04:34;19.20;;;17.23;;
59504;SDS011;45321;53.200;5.814;2023-05-07T13:07:01;14.50;;;13.13;;
59504;SDS011;45321;53.200;5.814;2023-05-07T13:09:27;14.80;;;13.30;;
59504;SDS011;45321;53.200;5.814;2023-05-07T13:11:56;13.30;;;12.20;;
59504;SDS011;45321;53.200;5.814;2023-05-07T13:14:25;14.88;;;13.32;;
59504;SDS011;45321;53.200;5.814;2023-05-07T13:16:50;14.73;;;13.35;;
59504;SDS011;45321;53.200;5.814;2023-05-07T13:19:16;13.55;;;12.27;;
59504;SDS011;45321;53.200;5.814;2023-05-07T13:21:42;14.25;;;12.95;;
59504;SDS011;45321;53.200;5.814;2023-05-07T13:24:08;13.63;;;12.20;;
59504;SDS011;45321;53.200;5.814;2023-05-07T13:26:34;13.73;;;12.38;;
59504;SDS011;45321;53.200;5.814;2023-05-07T13:29:00;13.15;;;11.90;;
59504;SDS011;45321;53.200;5.814;2023-05-07T13:31:25;13.90;;;12.70;;
59504;SDS011;45321;53.200;5.814;2023-05-07T13:33:51;14.07;;;12.68;;
59504;SDS011;45321;53.200;5.814;2023-05-07T13:36:17;13.10;;;11.65;;
59504;SDS011;45321;53.200;5.814;2023-05-07T13:38:43;12.93;;;11.73;;
59504;SDS011;45321;53.200;5.814;2023-05-07T13:41:08;14.10;;;12.80;;
59504;SDS011;45321;53.200;5.814;2023-05-07T13:43:36;13.48;;;12.18;;
59504;SDS011;45321;53.200;5.814;2023-05-07T13:46:01;13.75;;;12.55;;
59504;SDS011;45321;53.200;5.814;2023-05-07T13:48:27;14.45;;;13.20;;
59504;SDS011;45321;53.200;5.814;2023-05-07T13:50:56;15.95;;;14.55;;
59504;SDS011;45321;53.200;5.814;2023-05-07T13:53:22;16.15;;;14.75;;
59504;SDS011;45321;53.200;5.814;2023-05-07T13:55:48;13.13;;;12.02;;
59504;SDS011;45321;53.200;5.814;2023-05-07T13:58:14;14.82;;;13.38;;
59504;SDS011;45321;53.200;5.814;2023-05-07T14:00:39;13.57;;;12.38;;
59504;SDS011;45321;53.200;5.814;2023-05-07T14:03:05;14.13;;;12.77;;
59504;SDS011;45321;53.200;5.814;2023-05-07T14:05:31;13.18;;;12.07;;
59504;SDS011;45321;53.200;5.814;2023-05-07T14:07:57;14.48;;;13.07;;
59504;SDS011;45321;53.200;5.814;2023-05-07T14:10:23;13.18;;;12.02;;
59504;SDS011;45321;53.200;5.814;2023-05-07T14:12:49;13.70;;;12.27;;
59504;SDS011;45321;53.200;5.814;2023-05-07T14:15:15;15.60;;;14.23;;
59504;SDS011;45321;53.200;5.814;2023-05-07T14:17:41;13.25;;;11.95;;
59504;SDS011;45321;53.200;5.814;2023-05-07T14:20:07;14.10;;;12.75;;
59504;SDS011;45321;53.200;5.814;2023-05-07T14:22:33;13.38;;;12.18;;
59504;SDS011;45321;53.200;5.814;2023-05-07T14:24:59;13.02;;;11.77;;
59504;SDS011;45321;53.200;5.814;2023-05-07T14:27:25;13.57;;;12.27;;
59504;SDS011;45321;53.200;5.814;2023-05-07T14:29:50;12.85;;;11.65;;
59504;SDS011;45321;53.200;5.814;2023-05-07T14:32:19;12.93;;;11.63;;
59504;SDS011;45321;53.200;5.814;2023-05-07T14:34:46;12.80;;;11.68;;
59504;SDS011;45321;53.200;5.814;2023-05-07T14:37:11;13.18;;;11.88;;
59504;SDS011;45321;53.200;5.814;2023-05-07T14:39:37;12.63;;;11.40;;
59504;SDS011;45321;53.200;5.814;2023-05-07T14:42:03;13.18;;;11.82;;
59504;SDS011;45321;53.200;5.814;2023-05-07T14:44:30;12.75;;;11.55;;